Time;durP1;ratioP1;P1;durP2;ratioP2;P2;SDS_P1;SDS_P2;PMS_P1;PMS_P2;Temp;Humidity;BMP_temperature;BMP_pressure;BME280_temperature;BME280_humidity;BME280_pressure;Samples;Min_cycle;Max_cycle;Signal;HPM_P1;HPM_P2
2023/10/26 00:01:49;;;;;;;;;;;;;;;7.68;90.42;99622.80;105934;1260;61225;-76
2023/10/26 00:04:16;;;;;;;;;;;;;;;7.68;90.40;99619.66;105888;1260;124376;-77
2023/10/26 00:06:42;;;;;;;;;;;;;;;7.69;90.42;99619.50;105931;1261;66373;-77
2023/10/26 00:09:09;;;;;;;;;;;;;;;7.69;90.48;99618.28;105832;1256;124439;-77
2023/10/26 00:11:36;;;;;;;;;;;;;;;7.73;90.53;99614.33;105943;1257;61346;-77
2023/10/26 00:14:03;;;;;;;;;;;;;;;7.71;90.39;99620.40;105972;1256;61221;-83
2023/10/26 00:16:29;;;;;;;;;;;;;;;7.67;90.29;99620.69;105843;1255;124722;-77
2023/10/26 00:18:56;;;;;;;;;;;;;;;7.64;90.38;99620.09;106008;1260;61345;-80
2023/10/26 00:21:22;;;;;;;;;;;;;;;7.66;90.59;99617.52;105821;1255;124402;-81
2023/10/26 00:23:49;;;;;;;;;;;;;;;7.65;90.51;99618.19;106055;1255;61241;-81
2023/10/26 00:26:16;;;;;;;;;;;;;;;7.68;90.75;99616.70;105988;1256;61352;-79
2023/10/26 00:28:42;;;;;;;;;;;;;;;7.71;90.80;99618.48;106401;1256;123234;-81
2023/10/26 00:31:09;;;;;;;;;;;;;;;7.74;90.58;99614.17;105956;1257;61367;-83
2023/10/26 00:33:35;;;;;;;;;;;;;;;7.76;90.75;99615.08;106051;1255;124638;-80
2023/10/26 00:36:02;;;;;;;;;;;;;;;7.82;90.88;99616.93;105866;1259;61376;-81
2023/10/26 00:38:37;;;;;;;;;;;;;;;7.85;90.78;99611.92;105882;1256;125778;-80
2023/10/26 00:41:28;;;;;;;;;;;;;;;7.84;90.55;99611.02;106409;1256;75591;-80
2023/10/26 00:43:54;;;;;;;;;;;;;;;7.85;90.64;99611.75;105956;1256;66556;-80
2023/10/26 00:46:21;;;;;;;;;;;;;;;7.86;90.61;99610.89;105844;1260;124714;-81
2023/10/26 00:48:47;;;;;;;;;;;;;;;7.86;90.48;99609.67;105907;1259;61206;-81
2023/10/26 00:51:14;;;;;;;;;;;;;;;7.84;90.30;99607.70;105806;1258;124412;-81
2023/10/26 00:53:41;;;;;;;;;;;;;;;7.79;90.20;99605.37;105948;1259;73757;-81
2023/10/26 00:56:07;;;;;;;;;;;;;;;7.78;90.38;99598.19;105949;1260;65770;-81
2023/10/26 00:58:34;;;;;;;;;;;;;;;7.75;90.27;99593.06;105730;1260;124812;-82
2023/10/26 01:01:00;;;;;;;;;;;;;;;7.74;90.38;99587.45;105937;1256;61365;-81
2023/10/26 01:03:27;;;;;;;;;;;;;;;7.76;90.47;99583.30;106400;1255;131868;-82
2023/10/26 01:05:54;;;;;;;;;;;;;;;7.76;90.43;99578.92;106611;1260;74380;-82
2023/10/26 01:08:20;;;;;;;;;;;;;;;7.72;90.33;99571.00;106284;1260;124557;-81
2023/10/26 01:10:47;;;;;;;;;;;;;;;7.67;90.32;99569.69;106401;1257;71166;-82
2023/10/26 01:13:14;;;;;;;;;;;;;;;7.62;90.41;99567.33;106458;1260;61353;-82
2023/10/26 01:15:41;;;;;;;;;;;;;;;7.58;90.46;99569.54;105880;1256;124832;-82
2023/10/26 01:18:07;;;;;;;;;;;;;;;7.57;90.73;99568.13;105939;1256;61276;-82
2023/10/26 01:20:36;;;;;;;;;;;;;;;7.57;90.80;99564.46;105826;1255;124583;-81
2023/10/26 01:23:03;;;;;;;;;;;;;;;7.60;90.95;99560.84;106417;1256;72613;-82
2023/10/26 01:25:29;;;;;;;;;;;;;;;7.62;90.98;99558.61;106396;1256;61566;-81
2023/10/26 01:27:56;;;;;;;;;;;;;;;7.64;91.05;99560.55;105648;1260;125234;-81
2023/10/26 01:30:23;;;;;;;;;;;;;;;7.66;90.92;99560.95;106287;1260;76661;-81
2023/10/26 01:32:49;;;;;;;;;;;;;;;7.64;90.77;99557.79;105867;1259;124644;-81
2023/10/26 01:35:16;;;;;;;;;;;;;;;7.62;90.82;99556.33;105933;1256;71689;-81
2023/10/26 01:37:42;;;;;;;;;;;;;;;7.63;90.99;99557.92;105964;1258;61365;-81
2023/10/26 01:40:10;;;;;;;;;;;;;;;7.65;90.98;99555.52;106265;1256;124412;-81
2023/10/26 01:42:36;;;;;;;;;;;;;;;7.69;91.10;99552.44;106523;1260;74684;-81
2023/10/26 01:45:03;;;;;;;;;;;;;;;7.72;90.94;99553.89;106381;1255;124962;-81
2023/10/26 01:47:30;;;;;;;;;;;;;;;7.73;90.98;99552.16;106449;1255;72623;-82
2023/10/26 01:49:56;;;;;;;;;;;;;;;7.78;91.13;99548.59;106428;1256;65651;-82
2023/10/26 01:52:23;;;;;;;;;;;;;;;7.82;91.04;99545.84;106415;1256;126066;-81
2023/10/26 01:54:49;;;;;;;;;;;;;;;7.81;90.98;99544.77;106522;1257;61269;-79
2023/10/26 01:57:16;;;;;;;;;;;;;;;7.82;90.95;99540.95;105856;1256;130757;-80
2023/10/26 01:59:43;;;;;;;;;;;;;;;7.82;90.97;99535.02;106046;1256;72674;-80
2023/10/26 02:02:09;;;;;;;;;;;;;;;7.80;90.81;99532.02;105986;1256;61244;-81
2023/10/26 02:04:36;;;;;;;;;;;;;;;7.78;90.77;99533.22;105680;1255;124418;-82
2023/10/26 02:07:03;;;;;;;;;;;;;;;7.80;90.95;99530.80;105925;1256;73785;-81
2023/10/26 02:09:30;;;;;;;;;;;;;;;7.83;90.92;99533.82;105847;1256;124641;-81
2023/10/26 02:11:56;;;;;;;;;;;;;;;7.79;90.74;99535.16;105785;1260;61217;-81
2023/10/26 02:14:23;;;;;;;;;;;;;;;7.78;90.69;99538.98;105585;1256;125882;-81
2023/10/26 02:16:49;;;;;;;;;;;;;;;7.75;90.70;99531.42;105745;1260;61647;-82
2023/10/26 02:19:16;;;;;;;;;;;;;;;7.70;90.57;99530.98;105825;1256;73344;-81
2023/10/26 02:21:42;;;;;;;;;;;;;;;7.70;90.75;99526.96;105793;1260;125326;-81
2023/10/26 02:24:09;;;;;;;;;;;;;;;7.72;90.88;99525.08;105751;1260;73224;-81
2023/10/26 02:26:36;;;;;;;;;;;;;;;7.75;90.95;99521.64;105806;1255;124600;-81
2023/10/26 02:29:02;;;;;;;;;;;;;;;7.82;91.26;99519.12;105896;1260;61295;-82
2023/10/26 02:31:29;;;;;;;;;;;;;;;7.86;91.07;99518.48;105901;1256;73721;-81
2023/10/26 02:33:55;;;;;;;;;;;;;;;7.86;90.96;99515.17;105721;1256;124797;-81
2023/10/26 02:36:22;;;;;;;;;;;;;;;7.88;90.98;99513.83;105923;1260;61312;-80
2023/10/26 02:38:49;;;;;;;;;;;;;;;7.89;90.85;99512.27;105806;1257;125476;-80
2023/10/26 02:41:15;;;;;;;;;;;;;;;7.84;90.57;99507.81;105939;1256;61299;-81
2023/10/26 02:43:42;;;;;;;;;;;;;;;7.82;90.69;99506.20;105886;1255;61154;-80
2023/10/26 02:46:09;;;;;;;;;;;;;;;7.81;90.63;99506.54;105630;1255;125484;-81
2023/10/26 02:48:35;;;;;;;;;;;;;;;7.79;90.66;99504.60;105728;1261;71845;-80
2023/10/26 02:51:03;;;;;;;;;;;;;;;7.80;90.74;99504.25;105812;1256;125408;-80
2023/10/26 02:53:29;;;;;;;;;;;;;;;7.79;90.60;99502.67;105805;1255;61383;-80
2023/10/26 02:55:56;;;;;;;;;;;;;;;7.73;90.43;99499.43;106014;1256;73335;-80
2023/10/26 02:58:22;;;;;;;;;;;;;;;7.68;90.49;99492.89;105728;1256;124369;-81
2023/10/26 03:00:49;;;;;;;;;;;;;;;7.65;90.62;99490.22;105686;1255;71453;-81
2023/10/26 03:03:16;;;;;;;;;;;;;;;7.64;90.69;99491.08;105732;1260;124607;-81
2023/10/26 03:05:43;;;;;;;;;;;;;;;7.66;90.90;99490.77;105793;1255;61271;-80
2023/10/26 03:08:11;;;;;;;;;;;;;;;7.68;90.96;99491.33;105733;1260;73208;-80
2023/10/26 03:10:38;;;;;;;;;;;;;;;7.65;90.70;99487.95;105654;1258;124594;-77
2023/10/26 03:13:04;;;;;;;;;;;;;;;7.60;90.73;99483.84;105765;1255;71177;-77
2023/10/26 03:15:31;;;;;;;;;;;;;;;7.60;90.89;99480.70;105702;1260;124413;-80
2023/10/26 03:17:58;;;;;;;;;;;;;;;7.60;90.90;99481.23;105886;1260;61197;-78
2023/10/26 03:20:24;;;;;;;;;;;;;;;7.54;90.69;99475.55;105868;1257;124721;-80
2023/10/26 03:22:51;;;;;;;;;;;;;;;7.47;90.70;99475.95;106096;1256;66295;-81
2023/10/26 03:25:18;;;;;;;;;;;;;;;7.46;91.03;99475.23;105912;1256;73941;-80
2023/10/26 03:27:45;;;;;;;;;;;;;;;7.45;91.03;99475.75;105799;1255;124975;-81
2023/10/26 03:30:11;;;;;;;;;;;;;;;7.43;91.19;99477.10;105772;1256;61416;-81
2023/10/26 03:32:38;;;;;;;;;;;;;;;7.47;91.31;99475.59;105738;1257;124740;-80
2023/10/26 03:35:04;;;;;;;;;;;;;;;7.47;91.30;99474.20;106012;1257;61267;-81
2023/10/26 03:37:31;;;;;;;;;;;;;;;7.47;91.30;99469.31;105988;1257;71970;-81
2023/10/26 03:39:58;;;;;;;;;;;;;;;7.48;91.41;99466.19;105891;1259;124602;-80
2023/10/26 03:42:24;;;;;;;;;;;;;;;7.53;91.50;99469.24;105970;1256;61324;-81
2023/10/26 03:44:51;;;;;;;;;;;;;;;7.57;91.57;99465.48;105806;1256;124726;-81
2023/10/26 03:47:18;;;;;;;;;;;;;;;7.60;91.52;99466.22;105957;1256;65999;-81
2023/10/26 03:49:45;;;;;;;;;;;;;;;7.63;91.49;99462.95;106040;1256;73273;-81
2023/10/26 03:52:12;;;;;;;;;;;;;;;7.63;91.31;99463.13;106316;1255;124896;-83
2023/10/26 03:54:39;;;;;;;;;;;;;;;7.63;91.23;99464.52;106554;1258;61444;-83
2023/10/26 03:57:06;;;;;;;;;;;;;;;7.66;91.34;99469.11;106469;1256;124661;-83
2023/10/26 03:59:33;;;;;;;;;;;;;;;7.71;91.40;99469.18;106517;1255;66332;-85
2023/10/26 04:01:59;;;;;;;;;;;;;;;7.73;91.17;99468.70;105833;1256;71389;-81
2023/10/26 04:04:26;;;;;;;;;;;;;;;7.75;91.28;99465.92;105757;1255;124607;-83
2023/10/26 04:06:52;;;;;;;;;;;;;;;7.77;91.25;99464.04;106263;1255;61302;-83
2023/10/26 04:09:19;;;;;;;;;;;;;;;7.79;91.15;99459.20;106291;1259;124527;-83
2023/10/26 04:11:46;;;;;;;;;;;;;;;7.79;91.06;99453.79;106337;1258;66269;-83
2023/10/26 04:14:12;;;;;;;;;;;;;;;7.81;91.02;99451.18;106465;1260;61383;-83
2023/10/26 04:16:39;;;;;;;;;;;;;;;7.80;91.01;99446.62;105852;1255;124474;-83
2023/10/26 04:19:06;;;;;;;;;;;;;;;7.81;90.96;99443.33;105903;1258;61193;-84
2023/10/26 04:21:33;;;;;;;;;;;;;;;7.81;91.01;99439.30;105962;1256;125001;-83
2023/10/26 04:24:00;;;;;;;;;;;;;;;7.80;90.92;99436.83;105895;1255;66735;-83
2023/10/26 04:26:26;;;;;;;;;;;;;;;7.80;91.03;99431.26;105695;1256;124604;-81
2023/10/26 04:28:53;;;;;;;;;;;;;;;7.78;90.89;99427.39;105769;1256;61287;-83
2023/10/26 04:31:20;;;;;;;;;;;;;;;7.76;90.97;99426.48;105856;1255;61267;-83
2023/10/26 04:33:47;;;;;;;;;;;;;;;7.77;91.03;99427.89;105819;1256;125253;-83
2023/10/26 04:36:13;;;;;;;;;;;;;;;7.78;91.07;99426.52;105864;1257;64693;-83
2023/10/26 04:38:40;;;;;;;;;;;;;;;7.80;91.13;99423.23;105822;1255;124639;-85
2023/10/26 04:41:06;;;;;;;;;;;;;;;7.81;91.05;99419.75;106466;1256;61442;-81
2023/10/26 04:43:33;;;;;;;;;;;;;;;7.82;91.22;99418.35;106483;1259;61370;-81
2023/10/26 04:46:00;;;;;;;;;;;;;;;7.82;91.12;99420.27;106398;1256;124430;-81
2023/10/26 04:48:27;;;;;;;;;;;;;;;7.82;91.12;99420.28;105881;1255;64916;-82
2023/10/26 04:50:54;;;;;;;;;;;;;;;7.83;91.21;99418.55;105794;1259;124806;-83
2023/10/26 04:53:20;;;;;;;;;;;;;;;7.85;91.25;99414.73;105901;1256;61296;-83
2023/10/26 04:55:47;;;;;;;;;;;;;;;7.84;91.13;99416.12;106530;1255;60154;-81
2023/10/26 04:58:13;;;;;;;;;;;;;;;7.78;90.87;99415.15;106214;1256;124624;-85
2023/10/26 05:00:40;;;;;;;;;;;;;;;7.79;91.32;99418.32;106439;1255;65324;-75
2023/10/26 05:03:06;;;;;;;;;;;;;;;7.82;91.27;99418.18;105531;1256;124624;-80
2023/10/26 05:05:33;;;;;;;;;;;;;;;7.83;91.26;99415.23;106413;1256;61315;-74
2023/10/26 05:08:00;;;;;;;;;;;;;;;7.83;91.17;99413.83;105844;1256;61354;-75
2023/10/26 05:10:27;;;;;;;;;;;;;;;7.82;91.09;99407.36;105800;1256;124542;-76
2023/10/26 05:12:54;;;;;;;;;;;;;;;7.82;91.06;99404.91;105797;1256;65975;-80
2023/10/26 05:15:21;;;;;;;;;;;;;;;7.79;90.99;99399.12;106335;1256;125326;-77
2023/10/26 05:17:47;;;;;;;;;;;;;;;7.73;90.94;99395.38;105976;1260;61380;-76
2023/10/26 05:20:14;;;;;;;;;;;;;;;7.72;91.09;99395.52;106093;1256;61226;-78
2023/10/26 05:22:41;;;;;;;;;;;;;;;7.72;91.16;99394.98;106671;1255;124392;-77
2023/10/26 05:25:11;;;;;;;;;;;;;;;7.74;91.29;99395.72;106536;1256;65966;-78
2023/10/26 05:27:38;;;;;;;;;;;;;;;7.76;91.26;99397.85;105944;1256;124791;-77
2023/10/26 05:30:05;;;;;;;;;;;;;;;7.80;91.39;99399.48;106066;1259;61241;-78
2023/10/26 05:32:32;;;;;;;;;;;;;;;7.83;91.33;99402.31;108974;1256;125114;-78
2023/10/26 05:34:58;;;;;;;;;;;;;;;7.83;91.19;99402.48;109016;1256;74648;-78
2023/10/26 05:37:25;;;;;;;;;;;;;;;7.84;91.22;99405.11;109051;1255;64255;-79
2023/10/26 05:39:51;;;;;;;;;;;;;;;7.87;91.12;99403.77;108949;1256;124426;-76
2023/10/26 05:42:18;;;;;;;;;;;;;;;7.90;91.10;99396.45;108978;1256;59017;-77
2023/10/26 05:44:45;;;;;;;;;;;;;;;7.94;91.17;99394.24;107666;1256;124569;-77
2023/10/26 05:47:12;;;;;;;;;;;;;;;7.95;91.02;99395.33;106034;1256;73986;-78
2023/10/26 05:49:39;;;;;;;;;;;;;;;7.95;90.92;99400.55;105906;1260;66129;-78
2023/10/26 05:52:05;;;;;;;;;;;;;;;7.93;90.85;99398.25;105785;1260;124915;-78
2023/10/26 05:54:32;;;;;;;;;;;;;;;7.90;90.99;99396.30;106097;1256;59221;-78
2023/10/26 05:57:00;;;;;;;;;;;;;;;7.96;91.24;99396.38;105924;1256;124562;-78
2023/10/26 05:59:26;;;;;;;;;;;;;;;8.01;91.32;99397.14;105955;1256;74427;-77
2023/10/26 06:01:53;;;;;;;;;;;;;;;8.04;91.28;99398.04;105873;1260;66250;-77
2023/10/26 06:04:20;;;;;;;;;;;;;;;8.02;91.02;99397.67;106034;1256;125061;-78
2023/10/26 06:06:46;;;;;;;;;;;;;;;8.04;91.27;99399.27;106114;1256;61322;-78
2023/10/26 06:09:13;;;;;;;;;;;;;;;8.07;91.15;99398.27;105976;1259;125082;-83
2023/10/26 06:11:39;;;;;;;;;;;;;;;8.10;91.16;99403.20;106105;1256;73367;-84
2023/10/26 06:14:10;;;;;;;;;;;;;;;8.12;91.12;99406.91;106100;1256;63808;-78
2023/10/26 06:16:37;;;;;;;;;;;;;;;8.16;91.24;99405.91;108960;1255;124399;-78
2023/10/26 06:19:07;;;;;;;;;;;;;;;8.18;91.10;99405.40;106098;1256;61243;-78
2023/10/26 06:21:34;;;;;;;;;;;;;;;8.22;91.14;99405.80;105981;1262;124471;-78
2023/10/26 06:24:01;;;;;;;;;;;;;;;8.27;91.16;99409.70;106041;1259;74942;-84
2023/10/26 06:26:27;;;;;;;;;;;;;;;8.28;90.98;99408.15;106430;1256;124605;-83
2023/10/26 06:28:54;;;;;;;;;;;;;;;8.29;90.93;99406.07;106512;1256;71088;-83
2023/10/26 06:31:20;;;;;;;;;;;;;;;8.33;91.03;99401.92;105972;1260;61189;-83
2023/10/26 06:33:47;;;;;;;;;;;;;;;8.37;91.01;99402.85;106252;1256;124482;-83
2023/10/26 06:36:14;;;;;;;;;;;;;;;8.37;90.86;99401.63;106364;1255;74710;-83
2023/10/26 06:38:40;;;;;;;;;;;;;;;8.40;90.87;99406.90;106255;1256;125265;-84
2023/10/26 06:41:07;;;;;;;;;;;;;;;8.43;90.90;99403.30;106342;1256;72762;-83
2023/10/26 06:43:34;;;;;;;;;;;;;;;8.43;90.76;99406.11;105870;1261;61274;-82
2023/10/26 06:46:01;;;;;;;;;;;;;;;8.45;90.73;99403.67;105775;1256;127200;-82
2023/10/26 06:48:28;;;;;;;;;;;;;;;8.42;90.53;99401.36;105850;1256;75178;-83
2023/10/26 06:50:59;;;;;;;;;;;;;;;8.42;90.47;99400.84;105647;1260;124525;-83
2023/10/26 06:53:25;;;;;;;;;;;;;;;8.41;90.38;99397.13;105749;1256;71386;-83
2023/10/26 06:55:52;;;;;;;;;;;;;;;8.42;90.50;99397.85;105843;1255;61297;-84
2023/10/26 06:58:19;;;;;;;;;;;;;;;8.44;90.51;99394.58;106487;1261;124604;-82
2023/10/26 07:00:45;;;;;;;;;;;;;;;8.46;90.43;99392.84;105847;1260;75113;-82
2023/10/26 07:03:12;;;;;;;;;;;;;;;8.48;90.43;99391.13;105631;1257;125048;-83
2023/10/26 07:05:40;;;;;;;;;;;;;;;8.53;90.57;99389.79;107045;1256;72453;-83
2023/10/26 07:08:07;;;;;;;;;;;;;;;8.58;90.58;99388.44;105962;1255;61337;-83
2023/10/26 07:10:33;;;;;;;;;;;;;;;8.61;90.41;99389.34;105985;1255;124464;-83
2023/10/26 07:13:00;;;;;;;;;;;;;;;8.63;90.33;99392.51;106006;1256;74518;-83
2023/10/26 07:15:26;;;;;;;;;;;;;;;8.64;90.22;99387.45;105873;1256;124380;-83
2023/10/26 07:17:53;;;;;;;;;;;;;;;8.63;89.93;99388.15;106082;1255;71681;-83
2023/10/26 07:20:20;;;;;;;;;;;;;;;8.62;90.05;99388.84;105946;1256;124728;-80
2023/10/26 07:22:48;;;;;;;;;;;;;;;8.64;90.05;99392.35;106032;1258;61199;-83
2023/10/26 07:25:14;;;;;;;;;;;;;;;8.71;90.31;99392.60;106502;1256;73890;-83
2023/10/26 07:27:41;;;;;;;;;;;;;;;8.79;90.35;99391.27;106482;1256;124723;-83
2023/10/26 07:30:08;;;;;;;;;;;;;;;8.85;90.35;99386.96;106439;1256;72495;-83
2023/10/26 07:32:34;;;;;;;;;;;;;;;8.88;90.15;99390.51;106412;1255;125014;-83
2023/10/26 07:35:01;;;;;;;;;;;;;;;8.93;90.21;99387.58;106491;1255;61151;-83
2023/10/26 07:37:29;;;;;;;;;;;;;;;9.01;90.21;99386.42;106594;1256;74574;-84
2023/10/26 07:40:04;;;;;;;;;;;;;;;9.03;89.81;99387.68;106431;1256;124704;-77
2023/10/26 07:42:31;;;;;;;;;;;;;;;9.02;89.67;99389.23;108066;1256;71742;-77
2023/10/26 07:44:58;;;;;;;;;;;;;;;9.02;89.65;99393.42;105750;1260;125175;-77
2023/10/26 07:47:24;;;;;;;;;;;;;;;9.03;89.61;99394.30;105821;1258;61303;-78
2023/10/26 07:49:51;;;;;;;;;;;;;;;9.04;89.52;99391.52;105858;1256;73420;-78
2023/10/26 07:52:18;;;;;;;;;;;;;;;9.06;89.63;99392.95;105804;1255;124576;-78
2023/10/26 07:54:44;;;;;;;;;;;;;;;9.14;89.72;99391.96;106014;1261;72703;-77
2023/10/26 07:57:11;;;;;;;;;;;;;;;9.18;89.75;99395.33;105795;1256;124766;-77
2023/10/26 07:59:38;;;;;;;;;;;;;;;9.16;89.44;99395.14;105946;1256;61143;-77
2023/10/26 08:02:04;;;;;;;;;;;;;;;9.11;89.23;99396.67;105863;1256;74675;-77
2023/10/26 08:04:32;;;;;;;;;;;;;;;9.11;89.15;99398.77;105803;1256;125272;-77
2023/10/26 08:06:59;;;;;;;;;;;;;;;9.10;89.30;99397.54;105762;1256;72666;-77
2023/10/26 08:09:31;;;;;;;;;;;;;;;9.11;89.33;99395.96;105804;1256;125909;-78
2023/10/26 08:11:58;;;;;;;;;;;;;;;9.17;89.49;99391.65;106532;1260;61250;-79
2023/10/26 08:14:25;;;;;;;;;;;;;;;9.26;89.51;99391.20;106325;1256;124566;-78
2023/10/26 08:16:52;;;;;;;;;;;;;;;9.38;89.63;99391.64;105981;1256;65541;-83
2023/10/26 08:19:19;;;;;;;;;;;;;;;9.47;89.47;99387.86;106536;1260;71864;-83
2023/10/26 08:21:45;;;;;;;;;;;;;;;9.53;89.35;99385.28;106382;1256;124399;-83
2023/10/26 08:24:12;;;;;;;;;;;;;;;9.59;89.17;99382.88;106438;1255;61305;-84
2023/10/26 08:26:39;;;;;;;;;;;;;;;9.62;88.96;99378.16;106414;1256;124787;-83
2023/10/26 08:29:08;;;;;;;;;;;;;;;9.63;88.58;99378.01;106438;1259;65494;-78
2023/10/26 08:31:35;;;;;;;;;;;;;;;9.59;88.41;99376.03;107290;1256;71900;-79
2023/10/26 08:34:02;;;;;;;;;;;;;;;9.57;88.42;99373.23;105934;1258;125283;-78
2023/10/26 08:36:29;;;;;;;;;;;;;;;9.60;88.40;99373.25;105931;1256;61308;-78
2023/10/26 08:38:55;;;;;;;;;;;;;;;9.59;88.18;99376.92;105859;1256;124610;-78
2023/10/26 08:41:22;;;;;;;;;;;;;;;9.57;88.13;99378.64;105944;1260;65098;-77
2023/10/26 08:43:48;;;;;;;;;;;;;;;9.59;88.15;99379.73;105834;1261;72524;-77
2023/10/26 08:46:15;;;;;;;;;;;;;;;9.64;88.33;99379.59;105822;1260;124514;-78
2023/10/26 08:48:42;;;;;;;;;;;;;;;9.68;88.29;99382.59;105839;1256;61191;-79
2023/10/26 08:51:09;;;;;;;;;;;;;;;9.72;88.14;99379.45;106447;1256;124972;-79
2023/10/26 08:53:35;;;;;;;;;;;;;;;9.79;88.18;99374.77;106581;1260;65154;-78
2023/10/26 08:56:02;;;;;;;;;;;;;;;9.81;87.90;99370.05;106411;1256;71803;-77
2023/10/26 08:58:29;;;;;;;;;;;;;;;9.89;88.02;99373.95;105631;1256;125115;-77
2023/10/26 09:00:55;;;;;;;;;;;;;;;9.99;88.14;99375.23;105848;1261;61325;-78
2023/10/26 09:03:22;;;;;;;;;;;;;;;10.11;88.01;99374.77;105917;1256;125197;-84
2023/10/26 09:05:54;;;;;;;;;;;;;;;10.20;87.69;99372.87;106539;1255;65544;-83
2023/10/26 09:08:28;;;;;;;;;;;;;;;10.23;87.39;99369.21;106782;1256;71410;-79
2023/10/26 09:10:58;;;;;;;;;;;;;;;10.29;87.16;99365.21;105734;1261;61252;-83
2023/10/26 09:13:25;;;;;;;;;;;;;;;10.31;86.96;99363.67;106341;1256;61352;-82
2023/10/26 09:15:58;;;;;;;;;;;;;;;10.35;86.83;99363.49;105802;1261;124579;-78
2023/10/26 09:18:31;;;;;;;;;;;;;;;10.35;86.67;99362.80;106403;1261;65275;-76
2023/10/26 09:21:04;;;;;;;;;;;;;;;10.35;86.56;99358.25;105881;1259;192364;-82
2023/10/26 09:23:32;;;;;;;;;;;;;;;10.36;86.57;99363.32;106069;1256;61450;-83
2023/10/26 09:25:59;;;;;;;;;;;;;;;10.37;86.59;99365.79;105916;1256;61237;-83
2023/10/26 09:28:25;;;;;;;;;;;;;;;10.40;86.64;99365.79;105798;1256;125631;-83
2023/10/26 09:30:59;;;;;;;;;;;;;;;10.42;86.61;99367.73;105948;1256;65676;-83
2023/10/26 09:33:27;;;;;;;;;;;;;;;10.33;85.95;99365.23;105862;1255;124724;-83
2023/10/26 09:35:54;;;;;;;;;;;;;;;10.27;85.94;99360.63;106018;1258;61333;-77
2023/10/26 09:38:50;;;;;;;;;;;;;;;10.26;85.92;99359.75;105858;1261;61445;-78
2023/10/26 09:41:18;;;;;;;;;;;;;;;10.28;85.88;99361.16;105813;1256;75259;-78
2023/10/26 09:43:45;;;;;;;;;;;;;;;10.24;85.72;99362.02;105904;1256;65804;-78
2023/10/26 09:46:11;;;;;;;;;;;;;;;10.22;85.84;99358.86;105746;1256;125209;-78
2023/10/26 09:48:38;;;;;;;;;;;;;;;10.24;85.86;99360.80;105854;1259;61387;-78
2023/10/26 09:51:05;;;;;;;;;;;;;;;10.24;85.96;99354.14;105823;1258;125678;-83
2023/10/26 09:53:36;;;;;;;;;;;;;;;10.27;85.85;99350.28;105938;1256;74357;-84
2023/10/26 09:56:03;;;;;;;;;;;;;;;10.26;85.65;99346.61;105953;1261;66297;-83
2023/10/26 09:58:40;;;;;;;;;;;;;;;10.25;85.63;99345.02;105782;1261;124200;-83
2023/10/26 10:01:26;;;;;;;;;;;;;;;10.24;85.62;99338.70;106679;1256;61443;-83
2023/10/26 10:03:53;;;;;;;;;;;;;;;10.23;85.53;99338.70;106484;1256;124559;-83
2023/10/26 10:06:42;;;;;;;;;;;;;;;10.20;85.20;99335.02;106423;1255;75134;-84
2023/10/26 10:09:10;;;;;;;;;;;;;;;10.22;85.50;99333.63;106362;1256;124879;-83
2023/10/26 10:11:38;;;;;;;;;;;;;;;10.24;85.15;99329.24;106288;1255;71216;-84
2023/10/26 10:14:05;;;;;;;;;;;;;;;10.28;85.23;99326.80;106454;1256;61310;-83
2023/10/26 10:16:34;;;;;;;;;;;;;;;10.31;85.14;99327.02;106497;1260;124529;-84
2023/10/26 10:19:20;;;;;;;;;;;;;;;10.27;84.94;99325.57;106431;1256;74782;-84
2023/10/26 10:21:48;;;;;;;;;;;;;;;10.29;85.06;99323.98;106313;1256;124630;-84
2023/10/26 10:24:33;;;;;;;;;;;;;;;10.29;84.99;99324.87;106512;1255;72700;-84
2023/10/26 10:27:12;;;;;;;;;;;;;;;10.34;85.12;99323.34;106279;1260;126455;-84
2023/10/26 10:29:39;;;;;;;;;;;;;;;10.29;84.89;99324.53;106470;1260;61248;-83
2023/10/26 10:32:06;;;;;;;;;;;;;;;10.22;84.85;99320.83;106550;1256;74772;-84
2023/10/26 10:34:45;;;;;;;;;;;;;;;10.22;84.97;99322.58;106216;1256;124672;-83
2023/10/26 10:37:17;;;;;;;;;;;;;;;10.21;84.98;99320.80;106630;1258;71374;-84
2023/10/26 10:40:02;;;;;;;;;;;;;;;10.25;85.25;99319.77;106352;1256;126084;-83
2023/10/26 10:42:29;;;;;;;;;;;;;;;10.31;85.22;99320.54;106525;1257;61267;-83
2023/10/26 10:44:55;;;;;;;;;;;;;;;10.35;85.20;99317.73;106457;1260;125788;-85
2023/10/26 10:47:26;;;;;;;;;;;;;;;10.41;85.04;99317.23;106567;1256;64971;-83
2023/10/26 10:49:53;;;;;;;;;;;;;;;10.52;85.13;99311.64;106447;1256;72464;-83
2023/10/26 10:52:19;;;;;;;;;;;;;;;10.64;84.81;99313.42;106359;1261;124981;-83
2023/10/26 10:54:47;;;;;;;;;;;;;;;10.74;84.94;99307.46;105942;1256;61268;-83
2023/10/26 10:57:14;;;;;;;;;;;;;;;10.89;84.96;99310.64;105883;1257;125092;-83
2023/10/26 10:59:40;;;;;;;;;;;;;;;11.05;84.99;99308.53;105959;1257;65894;-83
2023/10/26 11:02:07;;;;;;;;;;;;;;;11.23;84.87;99308.52;105975;1256;71781;-83
2023/10/26 11:04:36;;;;;;;;;;;;;;;11.34;84.32;99310.98;105821;1260;124120;-78
2023/10/26 11:07:03;;;;;;;;;;;;;;;11.30;83.67;99309.39;107092;1261;60465;-78
2023/10/26 11:09:37;;;;;;;;;;;;;;;11.26;83.52;99309.22;106474;1256;125008;-84
2023/10/26 11:12:08;;;;;;;;;;;;;;;11.27;83.65;99306.41;106521;1260;66325;-84
2023/10/26 11:14:37;;;;;;;;;;;;;;;11.31;83.58;99307.11;106505;1256;125281;-77
2023/10/26 11:17:04;;;;;;;;;;;;;;;11.25;83.11;99302.21;106413;1256;61277;-79
2023/10/26 11:19:35;;;;;;;;;;;;;;;11.11;82.49;99300.45;105850;1256;60186;-78
2023/10/26 11:22:01;;;;;;;;;;;;;;;10.97;82.64;99300.98;105743;1261;124821;-78
2023/10/26 11:24:31;;;;;;;;;;;;;;;10.95;82.71;99297.83;106571;1256;65639;-84
2023/10/26 11:27:10;;;;;;;;;;;;;;;10.96;82.88;99294.50;106393;1259;126523;-83
2023/10/26 11:30:03;;;;;;;;;;;;;;;10.97;82.97;99293.44;106426;1260;61391;-78
2023/10/26 11:32:32;;;;;;;;;;;;;;;11.01;83.08;99293.79;109054;1256;59329;-78
2023/10/26 11:35:13;;;;;;;;;;;;;;;11.07;83.11;99291.50;106972;1259;73955;-77
2023/10/26 11:37:44;;;;;;;;;;;;;;;11.17;83.19;99289.92;108467;1258;66682;-84
2023/10/26 11:40:11;;;;;;;;;;;;;;;11.24;83.00;99293.41;106339;1257;126244;-84
2023/10/26 11:42:47;;;;;;;;;;;;;;;11.17;82.36;99290.63;106320;1260;61360;-84
2023/10/26 11:45:15;;;;;;;;;;;;;;;11.03;82.15;99288.01;106375;1260;124445;-84
2023/10/26 11:47:54;;;;;;;;;;;;;;;10.92;82.12;99289.58;106487;1256;74676;-82
2023/10/26 11:50:27;;;;;;;;;;;;;;;10.74;81.79;99288.16;105929;1261;65311;-83
2023/10/26 11:52:55;;;;;;;;;;;;;;;10.60;82.03;99282.19;106483;1256;123964;-82
2023/10/26 11:55:21;;;;;;;;;;;;;;;10.47;82.01;99279.70;106701;1262;61254;-83
2023/10/26 11:58:04;;;;;;;;;;;;;;;10.33;82.11;99280.38;106417;1260;125437;-78
2023/10/26 12:00:31;;;;;;;;;;;;;;;10.27;82.42;99275.60;107841;1258;74576;-78
2023/10/26 12:02:58;;;;;;;;;;;;;;;10.22;82.50;99282.07;105828;1257;124956;-78
2023/10/26 12:05:25;;;;;;;;;;;;;;;10.23;82.75;99277.17;105856;1256;72850;-78
2023/10/26 12:07:52;;;;;;;;;;;;;;;10.26;83.00;99277.70;105960;1260;61227;-78
2023/10/26 12:10:19;;;;;;;;;;;;;;;10.38;83.27;99274.27;105848;1259;124751;-84
2023/10/26 12:12:46;;;;;;;;;;;;;;;10.43;82.98;99270.94;106855;1258;74463;-83
2023/10/26 12:15:13;;;;;;;;;;;;;;;10.41;82.75;99272.87;107070;1255;125028;-79
2023/10/26 12:17:39;;;;;;;;;;;;;;;10.38;82.89;99268.11;107024;1260;61486;-83
2023/10/26 12:20:13;;;;;;;;;;;;;;;10.45;83.16;99269.54;106554;1260;61331;-78
2023/10/26 12:22:41;;;;;;;;;;;;;;;10.52;83.12;99272.52;108930;1255;125034;-78
2023/10/26 12:25:08;;;;;;;;;;;;;;;10.57;82.99;99271.48;105939;1254;73452;-78
2023/10/26 12:27:34;;;;;;;;;;;;;;;10.64;82.97;99275.70;105742;1260;125483;-78
2023/10/26 12:30:01;;;;;;;;;;;;;;;10.70;83.04;99273.43;105754;1260;72430;-78
2023/10/26 12:32:28;;;;;;;;;;;;;;;10.77;82.87;99272.20;106422;1256;61242;-77
2023/10/26 12:34:54;;;;;;;;;;;;;;;10.83;82.78;99272.73;106060;1260;124815;-78
2023/10/26 12:37:21;;;;;;;;;;;;;;;10.89;82.60;99267.46;105823;1256;74704;-78
2023/10/26 12:39:48;;;;;;;;;;;;;;;10.90;82.47;99264.48;105784;1261;125323;-78
2023/10/26 12:42:14;;;;;;;;;;;;;;;10.93;82.46;99264.29;105757;1263;72691;-78
2023/10/26 12:44:42;;;;;;;;;;;;;;;10.97;82.39;99263.77;105826;1261;124961;-79